sensor_id;sensor_type;location;lat;lon;timestamp;temperature;humidity
56426;DHT22;42330;43.620;3.856;2022-12-07T00:02:05;4.10;99.90
56426;DHT22;42330;43.620;3.856;2022-12-07T00:04:31;4.10;99.90
56426;DHT22;42330;43.620;3.856;2022-12-07T00:06:56;4.00;99.90
56426;DHT22;42330;43.620;3.856;2022-12-07T00:09:22;4.10;99.90
56426;DHT22;42330;43.620;3.856;2022-12-07T00:11:50;4.10;99.90
56426;DHT22;42330;43.620;3.856;2022-12-07T00:14:16;4.10;99.90
56426;DHT22;42330;43.620;3.856;2022-12-07T00:16:43;4.10;99.90
56426;DHT22;42330;43.620;3.856;2022-12-07T00:19:11;4.10;99.90
56426;DHT22;42330;43.620;3.856;2022-12-07T00:21:37;4.00;99.90
56426;DHT22;42330;43.620;3.856;2022-12-07T00:24:04;3.90;99.90
56426;DHT22;42330;43.620;3.856;2022-12-07T00:26:36;4.00;99.90
56426;DHT22;42330;43.620;3.856;2022-12-07T00:29:05;3.90;99.90
56426;DHT22;42330;43.620;3.856;2022-12-07T00:31:34;3.70;99.90
56426;DHT22;42330;43.620;3.856;2022-12-07T00:34:09;3.70;99.90
56426;DHT22;42330;43.620;3.856;2022-12-07T00:36:37;3.50;99.90
56426;DHT22;42330;43.620;3.856;2022-12-07T00:39:02;3.50;99.90
56426;DHT22;42330;43.620;3.856;2022-12-07T00:41:29;3.50;99.90
56426;DHT22;42330;43.620;3.856;2022-12-07T00:43:55;3.70;99.90
56426;DHT22;42330;43.620;3.856;2022-12-07T00:46:21;3.70;99.90
56426;DHT22;42330;43.620;3.856;2022-12-07T00:48:49;3.50;99.90
56426;DHT22;42330;43.620;3.856;2022-12-07T00:51:16;3.70;99.90
56426;DHT22;42330;43.620;3.856;2022-12-07T00:53:42;3.80;99.90
56426;DHT22;42330;43.620;3.856;2022-12-07T00:56:12;3.80;99.90
56426;DHT22;42330;43.620;3.856;2022-12-07T00:58:38;3.70;99.90
56426;DHT22;42330;43.620;3.856;2022-12-07T01:01:05;3.60;99.90
56426;DHT22;42330;43.620;3.856;2022-12-07T01:03:32;3.60;99.90
56426;DHT22;42330;43.620;3.856;2022-12-07T01:05:58;3.60;99.90
56426;DHT22;42330;43.620;3.856;2022-12-07T01:08:25;3.70;99.90
56426;DHT22;42330;43.620;3.856;2022-12-07T01:13:25;3.70;99.90
56426;DHT22;42330;43.620;3.856;2022-12-07T01:15:51;3.60;99.90
56426;DHT22;42330;43.620;3.856;2022-12-07T01:18:17;3.50;99.90
56426;DHT22;42330;43.620;3.856;2022-12-07T01:20:42;3.50;99.90
56426;DHT22;42330;43.620;3.856;2022-12-07T01:23:08;3.40;99.90
56426;DHT22;42330;43.620;3.856;2022-12-07T01:25:33;3.40;99.90
56426;DHT22;42330;43.620;3.856;2022-12-07T01:27:59;3.30;99.90
56426;DHT22;42330;43.620;3.856;2022-12-07T01:30:25;3.40;99.90
56426;DHT22;42330;43.620;3.856;2022-12-07T01:32:50;3.40;99.90
56426;DHT22;42330;43.620;3.856;2022-12-07T01:35:16;3.50;99.90
56426;DHT22;42330;43.620;3.856;2022-12-07T01:37:42;3.50;99.90
56426;DHT22;42330;43.620;3.856;2022-12-07T01:40:09;3.60;99.90
56426;DHT22;42330;43.620;3.856;2022-12-07T01:42:35;3.70;99.90
56426;DHT22;42330;43.620;3.856;2022-12-07T01:45:34;3.70;99.90
56426;DHT22;42330;43.620;3.856;2022-12-07T01:48:02;3.70;99.90
56426;DHT22;42330;43.620;3.856;2022-12-07T01:50:28;3.70;99.90
56426;DHT22;42330;43.620;3.856;2022-12-07T01:53:00;3.70;99.90
56426;DHT22;42330;43.620;3.856;2022-12-07T01:55:26;3.70;99.90
56426;DHT22;42330;43.620;3.856;2022-12-07T01:57:53;3.70;99.90
56426;DHT22;42330;43.620;3.856;2022-12-07T02:00:20;3.70;99.90
56426;DHT22;42330;43.620;3.856;2022-12-07T02:02:55;3.70;99.90
56426;DHT22;42330;43.620;3.856;2022-12-07T02:05:24;3.80;99.90
56426;DHT22;42330;43.620;3.856;2022-12-07T02:07:52;3.90;99.90
56426;DHT22;42330;43.620;3.856;2022-12-07T02:10:23;3.90;99.90
56426;DHT22;42330;43.620;3.856;2022-12-07T02:12:53;3.90;99.90
56426;DHT22;42330;43.620;3.856;2022-12-07T02:15:22;3.90;99.90
56426;DHT22;42330;43.620;3.856;2022-12-07T02:18:20;3.90;99.90
56426;DHT22;42330;43.620;3.856;2022-12-07T02:29:13;3.60;99.90
56426;DHT22;42330;43.620;3.856;2022-12-07T02:31:48;3.60;99.90
56426;DHT22;42330;43.620;3.856;2022-12-07T02:34:26;3.60;99.90
56426;DHT22;42330;43.620;3.856;2022-12-07T02:36:57;3.60;99.90
56426;DHT22;42330;43.620;3.856;2022-12-07T02:39:47;3.70;99.90
56426;DHT22;42330;43.620;3.856;2022-12-07T02:42:20;3.60;99.90
56426;DHT22;42330;43.620;3.856;2022-12-07T02:44:49;3.70;99.90
56426;DHT22;42330;43.620;3.856;2022-12-07T02:47:17;3.60;99.90
56426;DHT22;42330;43.620;3.856;2022-12-07T02:49:45;3.60;99.90
56426;DHT22;42330;43.620;3.856;2022-12-07T02:52:11;3.70;99.90
56426;DHT22;42330;43.620;3.856;2022-12-07T02:54:37;3.80;99.90
56426;DHT22;42330;43.620;3.856;2022-12-07T03:10:40;3.70;99.90
56426;DHT22;42330;43.620;3.856;2022-12-07T03:16:15;3.80;99.90
56426;DHT22;42330;43.620;3.856;2022-12-07T03:19:09;3.70;99.90
56426;DHT22;42330;43.620;3.856;2022-12-07T03:21:50;3.70;99.90
56426;DHT22;42330;43.620;3.856;2022-12-07T03:24:22;3.60;99.90
56426;DHT22;42330;43.620;3.856;2022-12-07T03:26:55;3.50;99.90
56426;DHT22;42330;43.620;3.856;2022-12-07T03:29:28;3.60;99.90
56426;DHT22;42330;43.620;3.856;2022-12-07T03:35:04;3.60;99.90
56426;DHT22;42330;43.620;3.856;2022-12-07T03:37:35;3.50;99.90
56426;DHT22;42330;43.620;3.856;2022-12-07T03:40:16;3.30;99.90
56426;DHT22;42330;43.620;3.856;2022-12-07T03:42:43;3.30;99.90
56426;DHT22;42330;43.620;3.856;2022-12-07T03:45:10;3.30;99.90
56426;DHT22;42330;43.620;3.856;2022-12-07T03:47:53;3.40;99.90
56426;DHT22;42330;43.620;3.856;2022-12-07T03:50:31;3.40;99.90
56426;DHT22;42330;43.620;3.856;2022-12-07T03:53:08;3.50;99.90
56426;DHT22;42330;43.620;3.856;2022-12-07T03:55:36;3.50;99.90
56426;DHT22;42330;43.620;3.856;2022-12-07T03:58:09;3.60;99.90
56426;DHT22;42330;43.620;3.856;2022-12-07T04:00:35;3.50;99.90
56426;DHT22;42330;43.620;3.856;2022-12-07T04:03:01;3.60;99.90
56426;DHT22;42330;43.620;3.856;2022-12-07T04:05:27;3.70;99.90
56426;DHT22;42330;43.620;3.856;2022-12-07T04:07:53;3.70;99.90
56426;DHT22;42330;43.620;3.856;2022-12-07T04:10:19;3.60;99.90
56426;DHT22;42330;43.620;3.856;2022-12-07T04:12:45;3.50;99.90
56426;DHT22;42330;43.620;3.856;2022-12-07T04:15:11;3.50;99.90
56426;DHT22;42330;43.620;3.856;2022-12-07T04:17:36;3.50;99.90
56426;DHT22;42330;43.620;3.856;2022-12-07T04:20:03;3.40;99.90
56426;DHT22;42330;43.620;3.856;2022-12-07T04:22:29;3.40;99.90
56426;DHT22;42330;43.620;3.856;2022-12-07T04:24:55;3.30;99.90
56426;DHT22;42330;43.620;3.856;2022-12-07T04:27:20;3.30;99.90
56426;DHT22;42330;43.620;3.856;2022-12-07T04:29:46;3.30;99.90
56426;DHT22;42330;43.620;3.856;2022-12-07T04:32:11;3.30;99.90
56426;DHT22;42330;43.620;3.856;2022-12-07T04:34:37;3.30;99.90
56426;DHT22;42330;43.620;3.856;2022-12-07T04:37:03;3.30;99.90
56426;DHT22;42330;43.620;3.856;2022-12-07T04:39:30;3.30;99.90
56426;DHT22;42330;43.620;3.856;2022-12-07T04:41:57;3.30;99.90
56426;DHT22;42330;43.620;3.856;2022-12-07T04:44:24;3.50;99.90
56426;DHT22;42330;43.620;3.856;2022-12-07T04:46:51;3.50;99.90
56426;DHT22;42330;43.620;3.856;2022-12-07T04:49:18;3.50;99.90
56426;DHT22;42330;43.620;3.856;2022-12-07T04:51:44;3.60;99.90
56426;DHT22;42330;43.620;3.856;2022-12-07T04:54:12;3.60;99.90
56426;DHT22;42330;43.620;3.856;2022-12-07T04:56:38;3.70;99.90
56426;DHT22;42330;43.620;3.856;2022-12-07T04:59:05;3.70;99.90
56426;DHT22;42330;43.620;3.856;2022-12-07T05:01:31;3.60;99.90
56426;DHT22;42330;43.620;3.856;2022-12-07T05:03:57;3.70;99.90
56426;DHT22;42330;43.620;3.856;2022-12-07T05:06:23;3.60;99.90
56426;DHT22;42330;43.620;3.856;2022-12-07T05:08:48;3.60;99.90
56426;DHT22;42330;43.620;3.856;2022-12-07T05:11:15;3.50;99.90
56426;DHT22;42330;43.620;3.856;2022-12-07T05:14:02;3.60;99.90
56426;DHT22;42330;43.620;3.856;2022-12-07T05:16:28;3.60;99.90
56426;DHT22;42330;43.620;3.856;2022-12-07T05:18:53;3.50;99.90
56426;DHT22;42330;43.620;3.856;2022-12-07T05:21:19;3.50;99.90
56426;DHT22;42330;43.620;3.856;2022-12-07T05:23:45;3.60;99.90
56426;DHT22;42330;43.620;3.856;2022-12-07T05:26:11;3.70;99.90
56426;DHT22;42330;43.620;3.856;2022-12-07T05:28:36;3.60;99.90
56426;DHT22;42330;43.620;3.856;2022-12-07T05:31:02;3.60;99.90
56426;DHT22;42330;43.620;3.856;2022-12-07T05:33:28;3.60;99.90
56426;DHT22;42330;43.620;3.856;2022-12-07T05:35:54;3.60;99.90
56426;DHT22;42330;43.620;3.856;2022-12-07T05:38:20;3.60;99.90
56426;DHT22;42330;43.620;3.856;2022-12-07T05:40:45;3.60;99.90
56426;DHT22;42330;43.620;3.856;2022-12-07T05:43:11;3.60;99.90
56426;DHT22;42330;43.620;3.856;2022-12-07T05:45:37;3.60;99.90
56426;DHT22;42330;43.620;3.856;2022-12-07T05:48:02;3.70;99.90
56426;DHT22;42330;43.620;3.856;2022-12-07T05:50:28;3.70;99.90
56426;DHT22;42330;43.620;3.856;2022-12-07T05:52:54;3.60;99.90
56426;DHT22;42330;43.620;3.856;2022-12-07T05:55:20;3.60;99.90
56426;DHT22;42330;43.620;3.856;2022-12-07T05:57:45;3.60;99.90
56426;DHT22;42330;43.620;3.856;2022-12-07T06:00:31;3.60;99.90
56426;DHT22;42330;43.620;3.856;2022-12-07T06:02:57;3.50;99.90
56426;DHT22;42330;43.620;3.856;2022-12-07T06:05:23;3.50;99.90
56426;DHT22;42330;43.620;3.856;2022-12-07T06:07:48;3.50;99.90
56426;DHT22;42330;43.620;3.856;2022-12-07T06:10:14;3.50;99.90
56426;DHT22;42330;43.620;3.856;2022-12-07T06:12:40;3.50;99.90
56426;DHT22;42330;43.620;3.856;2022-12-07T06:15:09;3.60;99.90
56426;DHT22;42330;43.620;3.856;2022-12-07T06:17:35;3.70;99.90
56426;DHT22;42330;43.620;3.856;2022-12-07T06:20:01;3.70;99.90
56426;DHT22;42330;43.620;3.856;2022-12-07T06:22:26;3.60;99.90
56426;DHT22;42330;43.620;3.856;2022-12-07T06:24:52;3.60;99.90
56426;DHT22;42330;43.620;3.856;2022-12-07T06:27:18;3.50;99.90
56426;DHT22;42330;43.620;3.856;2022-12-07T06:29:44;3.60;99.90
56426;DHT22;42330;43.620;3.856;2022-12-07T06:32:09;3.60;99.90
56426;DHT22;42330;43.620;3.856;2022-12-07T06:34:35;3.50;99.90
56426;DHT22;42330;43.620;3.856;2022-12-07T06:37:01;3.50;99.90
56426;DHT22;42330;43.620;3.856;2022-12-07T06:39:28;3.50;99.90
56426;DHT22;42330;43.620;3.856;2022-12-07T06:41:53;3.50;99.90
56426;DHT22;42330;43.620;3.856;2022-12-07T06:44:20;3.40;99.90
56426;DHT22;42330;43.620;3.856;2022-12-07T06:46:46;3.50;99.90
56426;DHT22;42330;43.620;3.856;2022-12-07T06:49:12;3.50;99.90
56426;DHT22;42330;43.620;3.856;2022-12-07T06:51:37;3.50;99.90
56426;DHT22;42330;43.620;3.856;2022-12-07T06:54:07;3.50;99.90
56426;DHT22;42330;43.620;3.856;2022-12-07T06:56:33;3.50;99.90
56426;DHT22;42330;43.620;3.856;2022-12-07T06:58:59;3.60;99.90
56426;DHT22;42330;43.620;3.856;2022-12-07T07:01:25;3.60;99.90
56426;DHT22;42330;43.620;3.856;2022-12-07T07:03:50;3.70;99.90
56426;DHT22;42330;43.620;3.856;2022-12-07T07:06:16;3.70;99.90
56426;DHT22;42330;43.620;3.856;2022-12-07T07:08:42;3.70;99.90
56426;DHT22;42330;43.620;3.856;2022-12-07T07:11:08;3.60;99.90
56426;DHT22;42330;43.620;3.856;2022-12-07T07:13:34;3.60;99.90
56426;DHT22;42330;43.620;3.856;2022-12-07T07:16:00;3.60;99.90
56426;DHT22;42330;43.620;3.856;2022-12-07T07:18:27;3.50;99.90
56426;DHT22;42330;43.620;3.856;2022-12-07T07:20:53;3.60;99.90
56426;DHT22;42330;43.620;3.856;2022-12-07T07:23:20;3.70;99.90
56426;DHT22;42330;43.620;3.856;2022-12-07T07:25:46;3.70;99.90
56426;DHT22;42330;43.620;3.856;2022-12-07T07:28:12;3.60;99.90
56426;DHT22;42330;43.620;3.856;2022-12-07T07:30:38;3.60;99.90
56426;DHT22;42330;43.620;3.856;2022-12-07T07:33:04;3.60;99.90
56426;DHT22;42330;43.620;3.856;2022-12-07T07:35:31;3.60;99.90
56426;DHT22;42330;43.620;3.856;2022-12-07T07:37:58;3.70;99.90
56426;DHT22;42330;43.620;3.856;2022-12-07T07:40:24;3.60;99.90
56426;DHT22;42330;43.620;3.856;2022-12-07T07:42:50;3.70;99.90
56426;DHT22;42330;43.620;3.856;2022-12-07T07:45:17;3.80;99.90
56426;DHT22;42330;43.620;3.856;2022-12-07T07:47:42;3.80;99.90
56426;DHT22;42330;43.620;3.856;2022-12-07T07:50:08;3.80;99.90
56426;DHT22;42330;43.620;3.856;2022-12-07T07:52:34;3.90;99.90
56426;DHT22;42330;43.620;3.856;2022-12-07T07:55:00;4.00;99.90
56426;DHT22;42330;43.620;3.856;2022-12-07T07:57:26;3.90;99.90
56426;DHT22;42330;43.620;3.856;2022-12-07T07:59:52;3.80;99.90
56426;DHT22;42330;43.620;3.856;2022-12-07T08:02:21;3.80;99.90
56426;DHT22;42330;43.620;3.856;2022-12-07T08:04:48;3.80;99.90
56426;DHT22;42330;43.620;3.856;2022-12-07T08:07:14;3.80;99.90
56426;DHT22;42330;43.620;3.856;2022-12-07T08:09:40;3.80;99.90
56426;DHT22;42330;43.620;3.856;2022-12-07T08:12:06;4.00;99.90
56426;DHT22;42330;43.620;3.856;2022-12-07T08:14:32;4.00;99.90
56426;DHT22;42330;43.620;3.856;2022-12-07T08:16:58;4.00;99.90
56426;DHT22;42330;43.620;3.856;2022-12-07T08:19:23;4.10;99.90
56426;DHT22;42330;43.620;3.856;2022-12-07T08:21:49;4.10;99.90
56426;DHT22;42330;43.620;3.856;2022-12-07T08:24:15;4.10;99.90
56426;DHT22;42330;43.620;3.856;2022-12-07T08:26:41;4.10;99.90
56426;DHT22;42330;43.620;3.856;2022-12-07T08:29:07;4.10;99.90
56426;DHT22;42330;43.620;3.856;2022-12-07T08:31:32;4.20;99.90
56426;DHT22;42330;43.620;3.856;2022-12-07T08:33:58;4.30;99.90
56426;DHT22;42330;43.620;3.856;2022-12-07T08:36:24;4.30;99.90
56426;DHT22;42330;43.620;3.856;2022-12-07T08:38:50;4.50;99.90
56426;DHT22;42330;43.620;3.856;2022-12-07T08:41:17;4.50;99.30
56426;DHT22;42330;43.620;3.856;2022-12-07T08:43:43;4.50;99.00
56426;DHT22;42330;43.620;3.856;2022-12-07T08:46:13;4.60;99.50
56426;DHT22;42330;43.620;3.856;2022-12-07T08:48:46;4.60;98.50
56426;DHT22;42330;43.620;3.856;2022-12-07T08:51:12;4.50;98.90
56426;DHT22;42330;43.620;3.856;2022-12-07T08:53:39;4.60;99.00
56426;DHT22;42330;43.620;3.856;2022-12-07T08:56:06;4.60;99.10
56426;DHT22;42330;43.620;3.856;2022-12-07T08:58:33;4.70;99.20
56426;DHT22;42330;43.620;3.856;2022-12-07T09:01:00;4.70;99.10
56426;DHT22;42330;43.620;3.856;2022-12-07T09:03:26;4.80;98.40
56426;DHT22;42330;43.620;3.856;2022-12-07T09:05:53;4.80;98.40
56426;DHT22;42330;43.620;3.856;2022-12-07T09:08:19;4.80;98.60
56426;DHT22;42330;43.620;3.856;2022-12-07T09:10:45;4.80;98.90
56426;DHT22;42330;43.620;3.856;2022-12-07T09:13:11;4.90;98.90
56426;DHT22;42330;43.620;3.856;2022-12-07T09:15:37;5.00;99.00
56426;DHT22;42330;43.620;3.856;2022-12-07T09:18:03;5.00;98.40
56426;DHT22;42330;43.620;3.856;2022-12-07T09:20:29;5.10;99.50
56426;DHT22;42330;43.620;3.856;2022-12-07T09:22:54;5.10;98.80
56426;DHT22;42330;43.620;3.856;2022-12-07T09:25:20;5.20;98.50
56426;DHT22;42330;43.620;3.856;2022-12-07T09:27:46;5.20;98.20
56426;DHT22;42330;43.620;3.856;2022-12-07T09:30:12;5.30;97.40
56426;DHT22;42330;43.620;3.856;2022-12-07T09:32:37;5.40;97.30
56426;DHT22;42330;43.620;3.856;2022-12-07T09:35:03;5.40;96.00
56426;DHT22;42330;43.620;3.856;2022-12-07T09:37:29;5.40;96.80
56426;DHT22;42330;43.620;3.856;2022-12-07T09:39:57;5.50;95.70
56426;DHT22;42330;43.620;3.856;2022-12-07T09:42:44;5.50;95.30
56426;DHT22;42330;43.620;3.856;2022-12-07T09:45:22;5.60;95.00
56426;DHT22;42330;43.620;3.856;2022-12-07T09:47:48;5.60;94.50
56426;DHT22;42330;43.620;3.856;2022-12-07T09:50:18;5.60;95.20
56426;DHT22;42330;43.620;3.856;2022-12-07T09:52:45;5.70;94.60
56426;DHT22;42330;43.620;3.856;2022-12-07T09:55:19;5.70;94.30
56426;DHT22;42330;43.620;3.856;2022-12-07T09:57:47;5.80;94.20
56426;DHT22;42330;43.620;3.856;2022-12-07T10:00:15;5.90;94.10
56426;DHT22;42330;43.620;3.856;2022-12-07T10:02:44;6.00;93.80
56426;DHT22;42330;43.620;3.856;2022-12-07T10:05:18;6.00;93.70
56426;DHT22;42330;43.620;3.856;2022-12-07T10:07:45;6.10;93.60
56426;DHT22;42330;43.620;3.856;2022-12-07T10:10:19;6.10;94.00
56426;DHT22;42330;43.620;3.856;2022-12-07T10:13:03;6.20;93.80
56426;DHT22;42330;43.620;3.856;2022-12-07T10:15:53;6.40;92.80
56426;DHT22;42330;43.620;3.856;2022-12-07T10:18:40;6.40;92.80
56426;DHT22;42330;43.620;3.856;2022-12-07T10:21:21;6.50;92.90
56426;DHT22;42330;43.620;3.856;2022-12-07T10:24:01;6.60;93.20
56426;DHT22;42330;43.620;3.856;2022-12-07T10:29:03;6.70;91.70
56426;DHT22;42330;43.620;3.856;2022-12-07T10:31:39;6.70;92.00
56426;DHT22;42330;43.620;3.856;2022-12-07T10:34:24;6.90;91.90
56426;DHT22;42330;43.620;3.856;2022-12-07T10:36:52;6.90;92.20
56426;DHT22;42330;43.620;3.856;2022-12-07T10:39:23;7.20;91.50
56426;DHT22;42330;43.620;3.856;2022-12-07T10:42:00;7.90;90.80
56426;DHT22;42330;43.620;3.856;2022-12-07T10:44:28;8.00;90.30
56426;DHT22;42330;43.620;3.856;2022-12-07T10:52:26;8.90;87.60
56426;DHT22;42330;43.620;3.856;2022-12-07T11:01:08;9.00;82.60
56426;DHT22;42330;43.620;3.856;2022-12-07T11:04:03;8.50;85.70
56426;DHT22;42330;43.620;3.856;2022-12-07T11:12:36;8.20;86.80
56426;DHT22;42330;43.620;3.856;2022-12-07T11:29:28;8.20;86.00
56426;DHT22;42330;43.620;3.856;2022-12-07T11:32:22;8.30;87.50
56426;DHT22;42330;43.620;3.856;2022-12-07T11:35:08;8.30;87.40
56426;DHT22;42330;43.620;3.856;2022-12-07T11:37:37;8.30;85.70
56426;DHT22;42330;43.620;3.856;2022-12-07T11:40:33;8.30;86.30
56426;DHT22;42330;43.620;3.856;2022-12-07T11:43:13;8.40;83.70
56426;DHT22;42330;43.620;3.856;2022-12-07T11:45:47;8.40;84.60
56426;DHT22;42330;43.620;3.856;2022-12-07T11:48:24;8.40;85.80
56426;DHT22;42330;43.620;3.856;2022-12-07T11:50:56;8.40;85.20
56426;DHT22;42330;43.620;3.856;2022-12-07T11:53:50;8.50;84.50
56426;DHT22;42330;43.620;3.856;2022-12-07T11:56:20;8.50;84.30
56426;DHT22;42330;43.620;3.856;2022-12-07T12:03:50;8.60;84.50
56426;DHT22;42330;43.620;3.856;2022-12-07T12:06:16;8.60;82.70
56426;DHT22;42330;43.620;3.856;2022-12-07T12:08:55;8.60;83.70
56426;DHT22;42330;43.620;3.856;2022-12-07T12:14:23;8.70;83.70
56426;DHT22;42330;43.620;3.856;2022-12-07T12:17:05;8.80;84.10
56426;DHT22;42330;43.620;3.856;2022-12-07T12:19:44;8.80;82.80
56426;DHT22;42330;43.620;3.856;2022-12-07T12:22:24;8.90;82.20
56426;DHT22;42330;43.620;3.856;2022-12-07T12:24:54;8.90;82.70
56426;DHT22;42330;43.620;3.856;2022-12-07T12:29:54;10.50;80.80
56426;DHT22;42330;43.620;3.856;2022-12-07T12:32:43;10.30;78.90
56426;DHT22;42330;43.620;3.856;2022-12-07T12:40:47;9.90;79.50
56426;DHT22;42330;43.620;3.856;2022-12-07T12:43:49;9.70;80.00
56426;DHT22;42330;43.620;3.856;2022-12-07T12:49:33;9.60;81.90
56426;DHT22;42330;43.620;3.856;2022-12-07T12:54:37;10.20;80.80
56426;DHT22;42330;43.620;3.856;2022-12-07T12:57:24;10.30;80.40
56426;DHT22;42330;43.620;3.856;2022-12-07T13:02:36;10.50;77.90
56426;DHT22;42330;43.620;3.856;2022-12-07T13:13:05;10.10;79.60
56426;DHT22;42330;43.620;3.856;2022-12-07T13:15:53;10.40;79.40
56426;DHT22;42330;43.620;3.856;2022-12-07T13:18:37;11.50;77.70
56426;DHT22;42330;43.620;3.856;2022-12-07T13:31:46;10.80;76.10
56426;DHT22;42330;43.620;3.856;2022-12-07T13:34:34;10.90;75.90
56426;DHT22;42330;43.620;3.856;2022-12-07T13:39:47;12.50;74.40
56426;DHT22;42330;43.620;3.856;2022-12-07T13:42:31;14.80;70.90
56426;DHT22;42330;43.620;3.856;2022-12-07T13:45:00;16.00;65.60
56426;DHT22;42330;43.620;3.856;2022-12-07T13:47:31;15.90;62.40
56426;DHT22;42330;43.620;3.856;2022-12-07T13:50:00;16.60;63.50
56426;DHT22;42330;43.620;3.856;2022-12-07T13:52:30;16.20;60.60
56426;DHT22;42330;43.620;3.856;2022-12-07T13:54:59;15.20;63.00
56426;DHT22;42330;43.620;3.856;2022-12-07T13:57:26;14.80;63.80
56426;DHT22;42330;43.620;3.856;2022-12-07T13:59:52;14.40;64.20
56426;DHT22;42330;43.620;3.856;2022-12-07T14:02:26;15.10;64.30
56426;DHT22;42330;43.620;3.856;2022-12-07T14:05:07;14.40;63.10
56426;DHT22;42330;43.620;3.856;2022-12-07T14:07:33;13.70;66.20
56426;DHT22;42330;43.620;3.856;2022-12-07T14:10:22;13.40;67.90
56426;DHT22;42330;43.620;3.856;2022-12-07T14:12:48;12.90;67.30
56426;DHT22;42330;43.620;3.856;2022-12-07T14:15:23;13.00;67.20
56426;DHT22;42330;43.620;3.856;2022-12-07T14:17:51;13.90;67.80
56426;DHT22;42330;43.620;3.856;2022-12-07T14:20:38;13.30;66.50
56426;DHT22;42330;43.620;3.856;2022-12-07T14:23:05;13.80;66.30
56426;DHT22;42330;43.620;3.856;2022-12-07T14:25:50;13.70;65.80
56426;DHT22;42330;43.620;3.856;2022-12-07T14:28:29;12.70;68.40
56426;DHT22;42330;43.620;3.856;2022-12-07T14:30:55;12.20;69.90
56426;DHT22;42330;43.620;3.856;2022-12-07T14:33:21;13.60;69.60
56426;DHT22;42330;43.620;3.856;2022-12-07T14:35:47;12.90;68.40
56426;DHT22;42330;43.620;3.856;2022-12-07T14:38:13;12.10;68.80
56426;DHT22;42330;43.620;3.856;2022-12-07T14:40:38;11.70;70.80
56426;DHT22;42330;43.620;3.856;2022-12-07T14:43:09;11.20;72.70
56426;DHT22;42330;43.620;3.856;2022-12-07T14:45:36;10.80;71.80
56426;DHT22;42330;43.620;3.856;2022-12-07T14:48:02;10.60;73.00
56426;DHT22;42330;43.620;3.856;2022-12-07T14:50:28;10.80;73.60
56426;DHT22;42330;43.620;3.856;2022-12-07T14:52:57;10.40;74.70
56426;DHT22;42330;43.620;3.856;2022-12-07T14:55:27;10.20;75.00
56426;DHT22;42330;43.620;3.856;2022-12-07T14:57:54;10.10;76.10
56426;DHT22;42330;43.620;3.856;2022-12-07T15:00:21;9.90;76.00
56426;DHT22;42330;43.620;3.856;2022-12-07T15:02:48;9.80;75.90
56426;DHT22;42330;43.620;3.856;2022-12-07T15:05:14;9.70;76.90
56426;DHT22;42330;43.620;3.856;2022-12-07T15:07:39;9.60;77.90
56426;DHT22;42330;43.620;3.856;2022-12-07T15:10:10;9.60;78.00
56426;DHT22;42330;43.620;3.856;2022-12-07T15:12:39;9.40;77.80
56426;DHT22;42330;43.620;3.856;2022-12-07T15:15:05;9.40;77.60
56426;DHT22;42330;43.620;3.856;2022-12-07T15:17:30;9.30;78.80
56426;DHT22;42330;43.620;3.856;2022-12-07T15:19:56;9.20;78.80
56426;DHT22;42330;43.620;3.856;2022-12-07T15:22:22;9.20;78.20
56426;DHT22;42330;43.620;3.856;2022-12-07T15:24:47;9.10;79.50
56426;DHT22;42330;43.620;3.856;2022-12-07T15:27:13;9.10;79.70
56426;DHT22;42330;43.620;3.856;2022-12-07T15:29:39;9.00;79.80
56426;DHT22;42330;43.620;3.856;2022-12-07T15:32:05;8.90;79.60
56426;DHT22;42330;43.620;3.856;2022-12-07T15:34:31;9.00;79.80
56426;DHT22;42330;43.620;3.856;2022-12-07T15:36:57;8.90;80.40
56426;DHT22;42330;43.620;3.856;2022-12-07T15:39:23;8.80;79.60
56426;DHT22;42330;43.620;3.856;2022-12-07T15:41:48;8.70;80.00
56426;DHT22;42330;43.620;3.856;2022-12-07T15:44:14;8.70;79.80
56426;DHT22;42330;43.620;3.856;2022-12-07T15:46:59;8.60;80.10
56426;DHT22;42330;43.620;3.856;2022-12-07T15:49:25;8.60;79.70
56426;DHT22;42330;43.620;3.856;2022-12-07T15:51:51;8.50;79.70
56426;DHT22;42330;43.620;3.856;2022-12-07T15:54:27;8.40;80.10
56426;DHT22;42330;43.620;3.856;2022-12-07T15:56:54;8.40;80.70
56426;DHT22;42330;43.620;3.856;2022-12-07T15:59:20;8.30;80.80
56426;DHT22;42330;43.620;3.856;2022-12-07T16:01:46;8.30;81.10
56426;DHT22;42330;43.620;3.856;2022-12-07T16:04:12;8.20;82.20
56426;DHT22;42330;43.620;3.856;2022-12-07T16:06:38;8.20;81.70
56426;DHT22;42330;43.620;3.856;2022-12-07T16:09:04;8.10;81.80
56426;DHT22;42330;43.620;3.856;2022-12-07T16:11:31;8.10;83.20
56426;DHT22;42330;43.620;3.856;2022-12-07T16:13:56;8.00;83.30
56426;DHT22;42330;43.620;3.856;2022-12-07T16:16:22;7.90;84.90
56426;DHT22;42330;43.620;3.856;2022-12-07T16:18:49;7.80;85.00
56426;DHT22;42330;43.620;3.856;2022-12-07T16:21:16;7.70;85.10
56426;DHT22;42330;43.620;3.856;2022-12-07T16:23:43;7.70;84.90
56426;DHT22;42330;43.620;3.856;2022-12-07T16:26:15;7.70;85.40
56426;DHT22;42330;43.620;3.856;2022-12-07T16:28:41;7.60;85.60
56426;DHT22;42330;43.620;3.856;2022-12-07T16:31:14;7.50;85.00
56426;DHT22;42330;43.620;3.856;2022-12-07T16:33:41;7.60;84.80
56426;DHT22;42330;43.620;3.856;2022-12-07T16:36:08;7.60;84.70
56426;DHT22;42330;43.620;3.856;2022-12-07T16:38:34;7.50;85.10
56426;DHT22;42330;43.620;3.856;2022-12-07T16:41:00;7.50;85.10
56426;DHT22;42330;43.620;3.856;2022-12-07T16:43:26;7.50;85.70
56426;DHT22;42330;43.620;3.856;2022-12-07T16:45:52;7.50;85.10
56426;DHT22;42330;43.620;3.856;2022-12-07T16:48:18;7.40;86.10
56426;DHT22;42330;43.620;3.856;2022-12-07T16:50:44;7.40;84.80
56426;DHT22;42330;43.620;3.856;2022-12-07T16:53:11;7.40;85.50
56426;DHT22;42330;43.620;3.856;2022-12-07T16:55:41;7.30;84.60
56426;DHT22;42330;43.620;3.856;2022-12-07T16:58:07;7.30;85.50
56426;DHT22;42330;43.620;3.856;2022-12-07T17:00:34;7.30;84.70
56426;DHT22;42330;43.620;3.856;2022-12-07T17:03:00;7.20;84.60
56426;DHT22;42330;43.620;3.856;2022-12-07T17:05:26;7.20;84.80
56426;DHT22;42330;43.620;3.856;2022-12-07T17:07:54;7.10;85.40
56426;DHT22;42330;43.620;3.856;2022-12-07T17:10:20;7.10;86.10
56426;DHT22;42330;43.620;3.856;2022-12-07T17:12:46;7.10;86.40
56426;DHT22;42330;43.620;3.856;2022-12-07T17:15:11;7.10;85.40
56426;DHT22;42330;43.620;3.856;2022-12-07T17:17:51;7.10;85.80
56426;DHT22;42330;43.620;3.856;2022-12-07T17:20:18;7.00;85.50
56426;DHT22;42330;43.620;3.856;2022-12-07T17:22:45;7.10;85.90
56426;DHT22;42330;43.620;3.856;2022-12-07T17:25:11;7.00;86.00
56426;DHT22;42330;43.620;3.856;2022-12-07T17:27:36;6.80;85.80
56426;DHT22;42330;43.620;3.856;2022-12-07T17:30:04;6.80;86.10
56426;DHT22;42330;43.620;3.856;2022-12-07T17:32:30;6.90;86.80
56426;DHT22;42330;43.620;3.856;2022-12-07T17:34:55;6.80;85.40
56426;DHT22;42330;43.620;3.856;2022-12-07T17:37:21;6.80;86.60
56426;DHT22;42330;43.620;3.856;2022-12-07T17:39:47;6.70;85.90
56426;DHT22;42330;43.620;3.856;2022-12-07T17:42:12;6.70;87.60
56426;DHT22;42330;43.620;3.856;2022-12-07T17:44:56;6.70;86.80
56426;DHT22;42330;43.620;3.856;2022-12-07T17:47:23;6.60;86.60
56426;DHT22;42330;43.620;3.856;2022-12-07T17:49:48;6.60;87.20